Time;durP1;ratioP1;P1;durP2;ratioP2;P2;SDS_P1;SDS_P2;PMS_P1;PMS_P2;Temp;Humidity;BMP_temperature;BMP_pressure;BME280_temperature;BME280_humidity;BME280_pressure;Samples;Min_cycle;Max_cycle;Signal;HPM_P1;HPM_P2
2023/03/05 00:01:07;;;;;;;;;;;4.00;99.90;;;;;;5054358;28;19950;-52
2023/03/05 00:03:32;;;;;;;;;;;4.10;99.90;;;;;;5054982;28;19963;-53
2023/03/05 00:05:58;;;;;;;;;;;4.10;99.90;;;;;;5054897;28;19948;-55
2023/03/05 00:08:23;;;;;;;;;;;4.10;99.90;;;;;;5054164;28;20275;-52
2023/03/05 00:11:02;;;;;;;;;;;4.10;99.90;;;;;;5054033;28;19939;-55
2023/03/05 00:13:28;;;;;;;;;;;4.10;99.90;;;;;;5070032;28;19912;-51
2023/03/05 00:15:53;;;;;;;;;;;4.10;99.90;;;;;;5074084;28;19955;-50
2023/03/05 00:18:19;;;;;;;;;;;4.00;99.90;;;;;;5074689;28;20389;-50
2023/03/05 00:20:44;;;;;;;;;;;4.00;99.90;;;;;;5074902;28;20012;-50
2023/03/05 00:23:10;;;;;;;;;;;4.00;99.90;;;;;;5073837;28;19916;-50
2023/03/05 00:25:36;;;;;;;;;;;4.00;99.90;;;;;;5074592;28;19916;-49
2023/03/05 00:28:02;;;;;;;;;;;4.00;99.90;;;;;;5074583;28;19908;-51
2023/03/05 00:30:28;;;;;;;;;;;3.90;99.90;;;;;;5073817;28;19910;-51
2023/03/05 00:32:53;;;;;;;;;;;3.90;99.90;;;;;;5060429;28;19967;-53
2023/03/05 00:35:18;;;;;;;;;;;3.90;99.90;;;;;;5053690;28;20390;-50
2023/03/05 00:37:44;;;;;;;;;;;3.90;99.90;;;;;;5054432;28;19913;-49
2023/03/05 00:40:10;;;;;;;;;;;3.90;99.90;;;;;;5054325;28;19913;-50
2023/03/05 00:42:37;;;;;;;;;;;3.90;99.90;;;;;;5053398;28;19964;-49
2023/03/05 00:45:06;;;;;;;;;;;3.90;99.90;;;;;;5058952;28;19921;-51
2023/03/05 00:47:32;;;;;;;;;;;3.90;99.90;;;;;;5072329;28;19921;-52
2023/03/05 00:49:58;;;;;;;;;;;3.90;99.90;;;;;;5062193;28;19930;-50
2023/03/05 00:52:23;;;;;;;;;;;3.90;99.90;;;;;;5074009;28;20274;-54
2023/03/05 00:54:49;;;;;;;;;;;3.90;99.90;;;;;;5059400;28;19916;-52
2023/03/05 00:57:14;;;;;;;;;;;3.90;99.90;;;;;;5053193;28;19919;-52
2023/03/05 00:59:40;;;;;;;;;;;3.80;99.90;;;;;;5053640;28;19966;-52
2023/03/05 01:02:05;;;;;;;;;;;3.80;99.90;;;;;;5053864;28;19909;-49
2023/03/05 01:04:31;;;;;;;;;;;3.90;99.90;;;;;;5053227;28;19943;-50
2023/03/05 01:06:56;;;;;;;;;;;3.80;99.90;;;;;;5067766;28;20275;-49
2023/03/05 01:09:24;;;;;;;;;;;3.80;99.90;;;;;;5073658;28;19915;-49
2023/03/05 01:11:50;;;;;;;;;;;3.80;99.90;;;;;;5073043;28;19961;-49
2023/03/05 01:14:15;;;;;;;;;;;3.80;99.90;;;;;;5073727;28;19912;-50
2023/03/05 01:16:41;;;;;;;;;;;3.80;99.90;;;;;;5073619;28;19973;-50
2023/03/05 01:19:06;;;;;;;;;;;3.80;99.90;;;;;;5072731;28;20347;-52
2023/03/05 01:21:33;;;;;;;;;;;3.80;99.90;;;;;;5073533;28;19951;-49
2023/03/05 01:23:58;;;;;;;;;;;3.80;99.90;;;;;;5073450;28;19909;-52
2023/03/05 01:26:24;;;;;;;;;;;3.80;99.90;;;;;;5072698;28;19935;-49
2023/03/05 01:28:49;;;;;;;;;;;3.80;99.90;;;;;;5073290;28;19915;-54
2023/03/05 01:31:15;;;;;;;;;;;3.80;99.90;;;;;;5073361;28;19913;-50
2023/03/05 01:33:40;;;;;;;;;;;3.80;99.90;;;;;;5072603;28;20315;-51
2023/03/05 01:36:07;;;;;;;;;;;3.80;99.90;;;;;;5073267;28;19909;-52
2023/03/05 01:38:32;;;;;;;;;;;3.80;99.90;;;;;;5072779;28;19909;-56
2023/03/05 01:40:58;;;;;;;;;;;3.70;99.90;;;;;;5072957;28;19920;-52
2023/03/05 01:43:25;;;;;;;;;;;3.70;99.90;;;;;;5059547;28;20433;-54
2023/03/05 01:46:09;;;;;;;;;;;3.70;99.90;;;;;;5052257;28;20014;-52
2023/03/05 01:48:35;;;;;;;;;;;3.70;99.90;;;;;;5053051;28;19908;-51
2023/03/05 01:51:00;;;;;;;;;;;3.70;99.90;;;;;;5052991;28;20456;-51
2023/03/05 01:53:26;;;;;;;;;;;3.80;99.90;;;;;;5060219;28;19908;-52
2023/03/05 01:55:51;;;;;;;;;;;3.80;99.90;;;;;;5072563;28;19968;-52
2023/03/05 01:58:17;;;;;;;;;;;3.80;99.90;;;;;;5070724;28;19920;-48
2023/03/05 02:00:44;;;;;;;;;;;3.80;99.90;;;;;;5053128;28;19935;-52
2023/03/05 02:03:11;;;;;;;;;;;3.80;99.90;;;;;;5052712;28;19912;-53
2023/03/05 02:05:37;;;;;;;;;;;3.80;99.90;;;;;;5063852;28;19920;-52
2023/03/05 02:08:07;;;;;;;;;;;3.80;99.90;;;;;;5067401;28;19912;-51
2023/03/05 02:10:35;;;;;;;;;;;3.80;99.90;;;;;;5052698;28;19944;-49
2023/03/05 02:13:02;;;;;;;;;;;3.70;99.90;;;;;;5059827;28;19961;-48
2023/03/05 02:15:28;;;;;;;;;;;3.70;99.90;;;;;;5072015;28;19974;-47
2023/03/05 02:17:54;;;;;;;;;;;3.70;99.90;;;;;;5072755;28;19909;-51
2023/03/05 02:20:23;;;;;;;;;;;3.60;99.90;;;;;;5072942;28;20360;-54
2023/03/05 02:22:49;;;;;;;;;;;3.60;99.90;;;;;;5071823;28;20263;-48
2023/03/05 02:25:18;;;;;;;;;;;3.50;99.90;;;;;;5065163;28;19928;-50
2023/03/05 02:27:49;;;;;;;;;;;3.50;99.90;;;;;;5052893;28;19955;-53
2023/03/05 02:30:14;;;;;;;;;;;3.40;99.90;;;;;;5052410;28;20274;-49
2023/03/05 02:32:40;;;;;;;;;;;3.40;99.90;;;;;;5052525;28;19996;-51
2023/03/05 02:35:05;;;;;;;;;;;3.30;99.90;;;;;;5054156;28;19909;-48
2023/03/05 02:37:31;;;;;;;;;;;3.30;99.90;;;;;;5056631;28;19958;-51
2023/03/05 02:39:56;;;;;;;;;;;3.30;99.90;;;;;;5056501;28;20271;-52
2023/03/05 02:42:22;;;;;;;;;;;3.20;99.90;;;;;;5055939;28;19942;-51
2023/03/05 02:44:47;;;;;;;;;;;3.20;99.90;;;;;;5056495;28;19917;-55
2023/03/05 02:47:12;;;;;;;;;;;3.20;99.90;;;;;;5056346;28;19909;-51
2023/03/05 02:49:38;;;;;;;;;;;3.20;99.90;;;;;;5055834;28;19916;-50
2023/03/05 02:52:03;;;;;;;;;;;3.10;99.90;;;;;;5056384;28;19917;-49
2023/03/05 02:54:29;;;;;;;;;;;3.10;99.90;;;;;;5056549;28;19909;-51
2023/03/05 02:56:54;;;;;;;;;;;3.10;99.90;;;;;;5055579;28;19909;-51
2023/03/05 02:59:20;;;;;;;;;;;3.10;99.90;;;;;;5055991;28;19927;-51
2023/03/05 03:01:45;;;;;;;;;;;3.10;99.90;;;;;;5063707;28;20314;-54
2023/03/05 03:04:11;;;;;;;;;;;3.10;99.90;;;;;;5075288;28;19963;-53
2023/03/05 03:06:36;;;;;;;;;;;3.20;99.90;;;;;;5076051;28;19916;-51
2023/03/05 03:09:02;;;;;;;;;;;3.20;99.90;;;;;;5058554;28;20355;-51
2023/03/05 03:11:28;;;;;;;;;;;3.20;99.90;;;;;;5055287;28;19916;-53
2023/03/05 03:13:53;;;;;;;;;;;3.20;99.90;;;;;;5067837;28;19912;-47
2023/03/05 03:16:19;;;;;;;;;;;3.20;99.90;;;;;;5075598;28;19913;-52
2023/03/05 03:18:46;;;;;;;;;;;3.20;99.90;;;;;;5073038;28;19921;-50
2023/03/05 03:21:22;;;;;;;;;;;3.20;99.90;;;;;;5064371;28;19912;-52
2023/03/05 03:23:47;;;;;;;;;;;3.20;99.90;;;;;;5075833;28;19908;-50
2023/03/05 03:26:13;;;;;;;;;;;3.20;99.90;;;;;;5058704;28;19917;-52
2023/03/05 03:28:38;;;;;;;;;;;3.20;99.90;;;;;;5055747;28;20027;-51
2023/03/05 03:31:04;;;;;;;;;;;3.20;99.90;;;;;;5055273;28;19915;-52
2023/03/05 03:33:30;;;;;;;;;;;3.20;99.90;;;;;;5055438;28;19916;-53
2023/03/05 03:35:55;;;;;;;;;;;3.20;99.90;;;;;;5055525;28;19908;-49
2023/03/05 03:38:21;;;;;;;;;;;3.20;99.90;;;;;;5070636;28;20274;-52
2023/03/05 03:40:46;;;;;;;;;;;3.20;99.90;;;;;;5075755;28;19958;-52
2023/03/05 03:43:12;;;;;;;;;;;3.30;99.90;;;;;;5075437;28;19943;-51
2023/03/05 03:45:41;;;;;;;;;;;3.30;99.90;;;;;;5073766;28;19939;-49
2023/03/05 03:48:07;;;;;;;;;;;3.30;99.90;;;;;;5075208;28;19995;-49
2023/03/05 03:50:32;;;;;;;;;;;3.30;99.90;;;;;;5075267;28;20416;-51
2023/03/05 03:52:58;;;;;;;;;;;3.30;99.90;;;;;;5074492;28;19908;-50
2023/03/05 03:55:23;;;;;;;;;;;3.30;99.90;;;;;;5075160;28;19912;-55
2023/03/05 03:57:49;;;;;;;;;;;3.30;99.90;;;;;;5075301;28;19913;-52
2023/03/05 04:00:14;;;;;;;;;;;3.30;99.90;;;;;;5074562;28;20346;-48
2023/03/05 04:02:40;;;;;;;;;;;3.30;99.90;;;;;;5075156;28;19938;-52
2023/03/05 04:05:06;;;;;;;;;;;3.30;99.90;;;;;;5074976;28;19970;-53
2023/03/05 04:07:31;;;;;;;;;;;3.30;99.90;;;;;;5074317;28;19913;-53
2023/03/05 04:09:57;;;;;;;;;;;3.30;99.90;;;;;;5074993;28;19909;-49
2023/03/05 04:12:22;;;;;;;;;;;3.30;99.90;;;;;;5074955;28;20363;-51
2023/03/05 04:14:48;;;;;;;;;;;3.30;99.90;;;;;;5058994;28;19939;-53
2023/03/05 04:17:14;;;;;;;;;;;3.30;99.90;;;;;;5054794;28;19916;-52
2023/03/05 04:19:40;;;;;;;;;;;3.30;99.90;;;;;;5054768;28;19909;-50
2023/03/05 04:22:08;;;;;;;;;;;3.30;99.90;;;;;;5064380;28;19912;-53
2023/03/05 04:24:34;;;;;;;;;;;3.30;99.90;;;;;;5056077;28;19924;-53
2023/03/05 04:26:59;;;;;;;;;;;3.30;99.90;;;;;;5059587;28;20294;-52
2023/03/05 04:29:25;;;;;;;;;;;3.30;99.90;;;;;;5073847;28;19909;-51
2023/03/05 04:31:51;;;;;;;;;;;3.30;99.90;;;;;;5074678;28;19909;-52
2023/03/05 04:34:16;;;;;;;;;;;3.20;99.90;;;;;;5074713;28;19913;-50
2023/03/05 04:36:42;;;;;;;;;;;3.20;99.90;;;;;;5073677;28;20291;-52
2023/03/05 04:39:07;;;;;;;;;;;3.20;99.90;;;;;;5069789;28;19955;-49
2023/03/05 04:41:33;;;;;;;;;;;3.20;99.90;;;;;;5053570;28;20012;-50
2023/03/05 04:43:58;;;;;;;;;;;3.20;99.90;;;;;;5054206;28;19908;-52
2023/03/05 04:46:24;;;;;;;;;;;3.20;99.90;;;;;;5054279;28;19952;-51
2023/03/05 04:48:49;;;;;;;;;;;3.30;99.90;;;;;;5053436;28;20382;-50
2023/03/05 04:51:15;;;;;;;;;;;3.20;99.90;;;;;;5054183;28;19917;-50
2023/03/05 04:53:40;;;;;;;;;;;3.30;99.90;;;;;;5054124;28;19909;-51
2023/03/05 04:56:06;;;;;;;;;;;3.30;99.90;;;;;;5053323;28;19916;-51
2023/03/05 04:58:31;;;;;;;;;;;3.30;99.90;;;;;;5053612;28;19929;-49
2023/03/05 05:01:03;;;;;;;;;;;3.30;99.90;;;;;;5054001;28;20003;-52
2023/03/05 05:03:29;;;;;;;;;;;3.40;99.90;;;;;;5053538;28;20054;-51
2023/03/05 05:05:55;;;;;;;;;;;3.40;99.90;;;;;;5053862;28;20015;-50
2023/03/05 05:08:21;;;;;;;;;;;3.30;99.90;;;;;;5053796;28;19940;-52
2023/03/05 05:11:00;;;;;;;;;;;3.40;99.90;;;;;;5053177;28;20284;-52
2023/03/05 05:13:26;;;;;;;;;;;3.30;99.90;;;;;;5053649;28;20274;-50
2023/03/05 05:15:52;;;;;;;;;;;3.30;99.90;;;;;;5060176;28;19957;-56
2023/03/05 05:18:17;;;;;;;;;;;3.30;99.90;;;;;;5072812;28;19944;-52
2023/03/05 05:20:43;;;;;;;;;;;3.40;99.90;;;;;;5073667;28;19916;-53
2023/03/05 05:23:08;;;;;;;;;;;3.30;99.90;;;;;;5073347;28;19945;-51
2023/03/05 05:25:34;;;;;;;;;;;3.30;99.90;;;;;;5072548;28;20418;-53
2023/03/05 05:27:59;;;;;;;;;;;3.30;99.90;;;;;;5073343;28;19908;-54
2023/03/05 05:30:25;;;;;;;;;;;3.30;99.90;;;;;;5073264;28;20006;-52
2023/03/05 05:32:50;;;;;;;;;;;3.30;99.90;;;;;;5072528;28;20409;-52
2023/03/05 05:35:16;;;;;;;;;;;3.30;99.90;;;;;;5066520;28;19919;-51
2023/03/05 05:37:41;;;;;;;;;;;3.30;99.90;;;;;;5061388;28;19966;-57
2023/03/05 05:40:07;;;;;;;;;;;3.30;99.90;;;;;;5053144;28;20283;-53
2023/03/05 05:42:33;;;;;;;;;;;3.30;99.90;;;;;;5053152;28;19909;-52
2023/03/05 05:44:59;;;;;;;;;;;3.20;99.90;;;;;;5052344;28;19912;-52
2023/03/05 05:47:24;;;;;;;;;;;3.20;99.90;;;;;;5053326;28;19935;-52
2023/03/05 05:49:50;;;;;;;;;;;3.10;99.90;;;;;;5053113;28;19909;-52
2023/03/05 05:52:15;;;;;;;;;;;3.10;99.90;;;;;;5052565;28;19913;-52
2023/03/05 05:54:41;;;;;;;;;;;3.10;99.90;;;;;;5053125;28;19908;-52
2023/03/05 05:57:06;;;;;;;;;;;3.10;99.90;;;;;;5067327;28;20362;-53
2023/03/05 05:59:32;;;;;;;;;;;3.10;99.90;;;;;;5072202;28;19925;-52
2023/03/05 06:01:58;;;;;;;;;;;3.10;99.90;;;;;;5072965;28;19916;-51
2023/03/05 06:04:23;;;;;;;;;;;3.10;99.90;;;;;;5072688;28;19923;-52
2023/03/05 06:06:49;;;;;;;;;;;3.10;99.90;;;;;;5072187;28;19913;-52
2023/03/05 06:09:14;;;;;;;;;;;3.10;99.90;;;;;;5072275;28;19955;-52
2023/03/05 06:11:40;;;;;;;;;;;3.10;99.90;;;;;;5068228;28;19912;-51
2023/03/05 06:14:07;;;;;;;;;;;3.20;99.90;;;;;;5051987;28;19954;-55
2023/03/05 06:16:33;;;;;;;;;;;3.10;99.90;;;;;;5055206;28;19913;-52
2023/03/05 06:18:58;;;;;;;;;;;3.10;99.90;;;;;;5052552;28;19916;-53
2023/03/05 06:21:24;;;;;;;;;;;3.10;99.90;;;;;;5051731;28;19967;-51
2023/03/05 06:23:50;;;;;;;;;;;3.10;99.90;;;;;;5052759;28;19909;-53
2023/03/05 06:26:18;;;;;;;;;;;3.10;99.90;;;;;;5057178;28;19921;-53
2023/03/05 06:28:43;;;;;;;;;;;3.10;99.90;;;;;;5058259;28;19960;-52
2023/03/05 06:31:10;;;;;;;;;;;3.10;99.90;;;;;;5052544;28;20343;-54
2023/03/05 06:33:36;;;;;;;;;;;3.10;99.90;;;;;;5052507;28;20344;-52
2023/03/05 06:36:03;;;;;;;;;;;3.10;99.90;;;;;;5051711;28;19912;-51
2023/03/05 06:38:28;;;;;;;;;;;3.10;99.90;;;;;;5052521;28;19909;-54
2023/03/05 06:40:54;;;;;;;;;;;3.10;99.90;;;;;;5052487;28;19909;-55
2023/03/05 06:43:19;;;;;;;;;;;3.10;99.90;;;;;;5051584;28;19933;-52
2023/03/05 06:45:44;;;;;;;;;;;3.10;99.90;;;;;;5062057;28;19927;-52
2023/03/05 06:48:11;;;;;;;;;;;3.10;99.90;;;;;;5057095;28;19913;-51
2023/03/05 06:50:37;;;;;;;;;;;3.10;99.90;;;;;;5060357;28;19912;-52
2023/03/05 06:53:02;;;;;;;;;;;3.10;99.90;;;;;;5059584;28;19912;-53
2023/03/05 06:55:28;;;;;;;;;;;3.10;99.90;;;;;;5071743;28;19916;-52
2023/03/05 06:57:53;;;;;;;;;;;3.10;99.90;;;;;;5072126;28;20264;-52
2023/03/05 07:00:19;;;;;;;;;;;3.10;99.90;;;;;;5072210;28;19909;-51
2023/03/05 07:02:45;;;;;;;;;;;3.10;99.90;;;;;;5071735;28;19909;-53
2023/03/05 07:05:10;;;;;;;;;;;3.10;99.90;;;;;;5068437;28;19956;-52
2023/03/05 07:07:36;;;;;;;;;;;3.10;99.90;;;;;;5052343;28;19909;-53
2023/03/05 07:10:02;;;;;;;;;;;3.10;99.90;;;;;;5055682;28;19923;-53
2023/03/05 07:12:27;;;;;;;;;;;3.10;99.90;;;;;;5059340;28;19909;-52
2023/03/05 07:14:53;;;;;;;;;;;3.20;99.90;;;;;;5052324;28;20268;-53
2023/03/05 07:17:18;;;;;;;;;;;3.20;99.90;;;;;;5051372;28;19938;-52
2023/03/05 07:19:43;;;;;;;;;;;3.20;99.90;;;;;;5052153;28;19909;-51
2023/03/05 07:22:09;;;;;;;;;;;3.20;99.90;;;;;;5067757;28;19923;-53
2023/03/05 07:24:35;;;;;;;;;;;3.20;99.90;;;;;;5064985;28;20052;-53
2023/03/05 07:27:00;;;;;;;;;;;3.20;99.90;;;;;;5058465;28;19921;-52
2023/03/05 07:29:26;;;;;;;;;;;3.30;99.90;;;;;;5064402;28;19909;-54
2023/03/05 07:31:52;;;;;;;;;;;3.30;99.90;;;;;;5054991;28;19960;-54
2023/03/05 07:34:18;;;;;;;;;;;3.40;99.90;;;;;;5055603;28;20039;-55
2023/03/05 07:36:43;;;;;;;;;;;3.40;99.90;;;;;;5055595;28;20291;-52
2023/03/05 07:39:10;;;;;;;;;;;3.40;99.90;;;;;;5054773;28;19956;-53
2023/03/05 07:41:35;;;;;;;;;;;3.50;99.90;;;;;;5055549;28;19916;-51
2023/03/05 07:44:01;;;;;;;;;;;3.50;99.90;;;;;;5055618;28;20007;-52
2023/03/05 07:46:28;;;;;;;;;;;3.50;99.90;;;;;;5054685;28;19917;-54
2023/03/05 07:48:54;;;;;;;;;;;3.60;99.90;;;;;;5055390;28;19932;-55
2023/03/05 07:51:20;;;;;;;;;;;3.70;99.90;;;;;;5054615;28;20418;-50
2023/03/05 07:53:47;;;;;;;;;;;3.80;99.90;;;;;;5055300;28;19908;-54
2023/03/05 07:56:12;;;;;;;;;;;3.80;99.90;;;;;;5055373;28;19913;-54
2023/03/05 07:58:38;;;;;;;;;;;3.80;99.90;;;;;;5054159;28;19940;-55
2023/03/05 08:01:08;;;;;;;;;;;3.90;99.90;;;;;;5054995;28;20359;-54
2023/03/05 08:03:34;;;;;;;;;;;3.90;99.90;;;;;;5055149;28;20283;-52
2023/03/05 08:06:03;;;;;;;;;;;4.00;99.90;;;;;;5055409;28;19920;-55
2023/03/05 08:08:28;;;;;;;;;;;4.00;99.90;;;;;;5067086;28;19928;-53
2023/03/05 08:10:54;;;;;;;;;;;4.10;99.90;;;;;;5054878;28;20362;-51
2023/03/05 08:13:19;;;;;;;;;;;4.10;99.90;;;;;;5062201;28;19999;-56
2023/03/05 08:15:45;;;;;;;;;;;4.20;99.90;;;;;;5074963;28;19915;-53
2023/03/05 08:18:12;;;;;;;;;;;4.20;99.90;;;;;;5071777;28;19913;-50
2023/03/05 08:20:38;;;;;;;;;;;4.30;99.90;;;;;;5073853;28;20337;-55
2023/03/05 08:23:03;;;;;;;;;;;4.30;99.90;;;;;;5072972;28;19908;-52
2023/03/05 08:25:30;;;;;;;;;;;4.30;99.90;;;;;;5063089;28;19923;-52
2023/03/05 08:27:55;;;;;;;;;;;4.40;99.90;;;;;;5074122;28;19915;-51
2023/03/05 08:30:25;;;;;;;;;;;4.40;99.90;;;;;;5067941;28;19913;-52
2023/03/05 08:32:51;;;;;;;;;;;4.50;99.90;;;;;;5073954;28;19916;-52
2023/03/05 08:35:16;;;;;;;;;;;4.60;99.90;;;;;;5060358;28;19909;-53
2023/03/05 08:37:42;;;;;;;;;;;4.70;99.90;;;;;;5055345;28;19917;-53
2023/03/05 08:40:09;;;;;;;;;;;4.80;99.90;;;;;;5054348;28;19932;-55
2023/03/05 08:42:34;;;;;;;;;;;4.90;99.90;;;;;;5053714;28;19917;-52
2023/03/05 08:44:59;;;;;;;;;;;5.00;99.90;;;;;;5054122;28;20260;-52
2023/03/05 08:47:26;;;;;;;;;;;5.10;99.90;;;;;;5054282;28;19913;-53
2023/03/05 08:49:54;;;;;;;;;;;5.10;99.90;;;;;;5053737;28;20310;-57
2023/03/05 08:52:23;;;;;;;;;;;5.20;99.90;;;;;;5054088;28;20374;-56
2023/03/05 08:54:48;;;;;;;;;;;5.20;99.90;;;;;;5053313;28;19913;-53
2023/03/05 08:57:14;;;;;;;;;;;5.20;99.90;;;;;;5061166;28;20378;-53
2023/03/05 08:59:39;;;;;;;;;;;5.20;99.90;;;;;;5053922;28;20011;-55
2023/03/05 09:02:05;;;;;;;;;;;5.10;99.90;;;;;;5053091;28;19909;-52
2023/03/05 09:04:30;;;;;;;;;;;5.10;99.90;;;;;;5053881;28;19921;-53
2023/03/05 09:06:56;;;;;;;;;;;5.10;99.90;;;;;;5053938;28;19913;-52
2023/03/05 09:09:22;;;;;;;;;;;5.20;99.90;;;;;;5068873;28;19952;-49
2023/03/05 09:11:47;;;;;;;;;;;5.30;99.90;;;;;;5066793;28;20326;-53
2023/03/05 09:14:13;;;;;;;;;;;5.30;99.90;;;;;;5054017;28;19916;-53
2023/03/05 09:16:39;;;;;;;;;;;5.40;99.90;;;;;;5052932;28;20291;-54
2023/03/05 09:19:07;;;;;;;;;;;5.50;99.90;;;;;;5053658;28;20352;-52
2023/03/05 09:21:33;;;;;;;;;;;5.50;99.90;;;;;;5053810;28;19955;-53
2023/03/05 09:23:59;;;;;;;;;;;5.60;99.90;;;;;;5052813;28;19953;-53
2023/03/05 09:26:25;;;;;;;;;;;5.60;99.90;;;;;;5056207;28;19943;-52
2023/03/05 09:28:50;;;;;;;;;;;5.70;99.90;;;;;;5056568;28;20265;-53
2023/03/05 09:31:16;;;;;;;;;;;5.70;99.90;;;;;;5052645;28;20001;-55
2023/03/05 09:33:42;;;;;;;;;;;5.80;99.90;;;;;;5053611;28;19928;-53
2023/03/05 09:36:24;;;;;;;;;;;5.90;99.90;;;;;;5053209;28;19917;-53
2023/03/05 09:38:50;;;;;;;;;;;6.00;99.90;;;;;;5053402;28;19909;-54
2023/03/05 09:41:20;;;;;;;;;;;6.00;99.90;;;;;;5071798;28;19912;-53
2023/03/05 09:43:46;;;;;;;;;;;6.10;99.90;;;;;;5076488;28;19908;-53
2023/03/05 09:46:26;;;;;;;;;;;6.20;99.90;;;;;;5074615;28;19923;-53
2023/03/05 09:48:55;;;;;;;;;;;6.20;99.90;;;;;;5077491;28;19938;-54
2023/03/05 09:51:26;;;;;;;;;;;6.30;99.90;;;;;;5077482;28;19923;-54
2023/03/05 09:53:52;;;;;;;;;;;6.40;99.90;;;;;;5078969;28;19994;-54
2023/03/05 09:56:19;;;;;;;;;;;6.60;99.90;;;;;;5074060;28;20049;-53
2023/03/05 09:58:47;;;;;;;;;;;6.70;99.90;;;;;;5076741;28;19920;-54
2023/03/05 10:01:27;;;;;;;;;;;6.90;99.90;;;;;;5078053;28;19951;-53
2023/03/05 10:03:56;;;;;;;;;;;7.00;99.90;;;;;;5081280;28;19912;-53
2023/03/05 10:06:23;;;;;;;;;;;7.10;99.90;;;;;;5062815;28;20023;-45
2023/03/05 10:08:54;;;;;;;;;;;7.20;99.90;;;;;;5056191;28;19992;-52
2023/03/05 10:11:38;;;;;;;;;;;7.20;99.90;;;;;;5057582;28;20019;-53
2023/03/05 10:14:06;;;;;;;;;;;7.30;99.90;;;;;;5069420;28;20066;-54
2023/03/05 10:16:51;;;;;;;;;;;7.40;99.90;;;;;;5056936;28;19916;-54
2023/03/05 10:19:27;;;;;;;;;;;7.50;99.90;;;;;;5053811;28;20387;-54
2023/03/05 10:22:08;;;;;;;;;;;7.50;99.90;;;;;;5065089;28;19949;-53
2023/03/05 10:24:48;;;;;;;;;;;7.50;99.90;;;;;;5072737;28;19917;-53
2023/03/05 10:27:27;;;;;;;;;;;7.40;99.90;;;;;;5061412;28;19913;-53
2023/03/05 10:30:04;;;;;;;;;;;7.20;99.90;;;;;;5052734;28;20003;-56
2023/03/05 10:32:37;;;;;;;;;;;7.00;99.90;;;;;;5052636;28;19927;-53
2023/03/05 10:35:13;;;;;;;;;;;6.70;99.90;;;;;;5052283;28;20003;-55
2023/03/05 10:37:59;;;;;;;;;;;6.40;99.90;;;;;;5054174;28;19909;-53
2023/03/05 10:40:31;;;;;;;;;;;6.30;99.90;;;;;;5051838;28;20009;-53
2023/03/05 10:43:09;;;;;;;;;;;6.20;99.90;;;;;;5053341;28;20003;-54
2023/03/05 10:45:37;;;;;;;;;;;6.10;99.90;;;;;;5061282;28;19916;-52
2023/03/05 10:48:09;;;;;;;;;;;6.10;99.90;;;;;;5051605;28;19948;-52
2023/03/05 10:50:43;;;;;;;;;;;6.10;99.90;;;;;;5053060;28;19908;-54
2023/03/05 10:53:08;;;;;;;;;;;6.20;99.90;;;;;;5071968;28;19951;-54
2023/03/05 10:55:34;;;;;;;;;;;6.30;99.90;;;;;;5072988;28;19959;-55
2023/03/05 10:58:00;;;;;;;;;;;6.50;99.90;;;;;;5076042;28;19915;-56
2023/03/05 11:00:26;;;;;;;;;;;6.80;99.90;;;;;;5076611;28;19916;-55
2023/03/05 11:03:03;;;;;;;;;;;7.00;99.90;;;;;;5075094;28;19912;-54
2023/03/05 11:05:47;;;;;;;;;;;7.10;99.90;;;;;;5076059;28;20386;-55
2023/03/05 11:08:33;;;;;;;;;;;7.10;99.90;;;;;;5062759;28;19963;-57
2023/03/05 11:11:02;;;;;;;;;;;6.90;99.90;;;;;;5076073;28;20002;-54
2023/03/05 11:13:28;;;;;;;;;;;6.70;99.90;;;;;;5065763;28;19945;-55
2023/03/05 11:16:01;;;;;;;;;;;6.50;99.90;;;;;;5055321;28;19909;-54
2023/03/05 11:18:30;;;;;;;;;;;6.30;99.90;;;;;;5063103;28;19919;-55
2023/03/05 11:21:07;;;;;;;;;;;6.20;99.90;;;;;;5075861;28;20359;-50
2023/03/05 11:23:32;;;;;;;;;;;6.10;99.90;;;;;;5075295;28;19912;-54
2023/03/05 11:26:02;;;;;;;;;;;6.20;99.90;;;;;;5066853;28;19921;-55
2023/03/05 11:28:35;;;;;;;;;;;6.20;99.90;;;;;;5075880;28;19977;-55
2023/03/05 11:31:06;;;;;;;;;;;6.40;99.90;;;;;;5063844;28;19909;-56
2023/03/05 11:33:32;;;;;;;;;;;6.50;99.90;;;;;;5055867;28;19908;-56
2023/03/05 11:36:16;;;;;;;;;;;6.60;99.90;;;;;;5055629;28;19916;-54
2023/03/05 11:38:48;;;;;;;;;;;6.70;99.90;;;;;;5054941;28;19909;-54
2023/03/05 11:41:15;;;;;;;;;;;7.00;99.90;;;;;;5055467;28;19908;-55
2023/03/05 11:43:42;;;;;;;;;;;7.10;99.90;;;;;;5054716;28;20287;-55
2023/03/05 11:46:09;;;;;;;;;;;7.40;99.90;;;;;;5055757;28;19947;-55
2023/03/05 11:48:35;;;;;;;;;;;7.50;99.90;;;;;;5061475;28;19989;-54
2023/03/05 11:51:13;;;;;;;;;;;7.70;99.90;;;;;;5060299;28;19912;-52
2023/03/05 11:53:39;;;;;;;;;;;7.90;99.90;;;;;;5068827;28;19912;-53
2023/03/05 11:56:17;;;;;;;;;;;7.80;99.90;;;;;;5069301;28;19924;-55
2023/03/05 11:58:47;;;;;;;;;;;8.10;99.90;;;;;;5063029;28;19931;-53
2023/03/05 12:01:20;;;;;;;;;;;8.10;99.90;;;;;;5073932;28;19917;-55
2023/03/05 12:03:47;;;;;;;;;;;8.20;99.90;;;;;;5078555;28;19973;-50
2023/03/05 12:06:18;;;;;;;;;;;8.30;99.90;;;;;;5075099;28;20341;-54
2023/03/05 12:08:47;;;;;;;;;;;8.10;99.90;;;;;;5083933;28;19961;-53
2023/03/05 12:11:20;;;;;;;;;;;8.00;99.90;;;;;;5083210;28;19912;-58
2023/03/05 12:13:49;;;;;;;;;;;7.90;99.90;;;;;;5081837;28;19915;-54
2023/03/05 12:16:38;;;;;;;;;;;7.80;99.90;;;;;;5083470;28;19954;-55
2023/03/05 12:19:15;;;;;;;;;;;7.80;99.90;;;;;;5083168;28;19912;-54
2023/03/05 12:21:42;;;;;;;;;;;7.70;99.90;;;;;;5084354;28;19908;-54
2023/03/05 12:24:40;;;;;;;;;;;7.80;99.90;;;;;;5077828;28;19920;-54
2023/03/05 12:27:08;;;;;;;;;;;8.00;99.90;;;;;;5043536;28;20379;-53
2023/03/05 12:29:42;;;;;;;;;;;8.00;99.90;;;;;;5083175;28;19909;-55
2023/03/05 12:32:31;;;;;;;;;;;8.10;99.90;;;;;;5076162;28;19923;-53
2023/03/05 12:35:00;;;;;;;;;;;8.20;99.90;;;;;;5054073;28;19909;-54
2023/03/05 12:37:26;;;;;;;;;;;8.10;99.90;;;;;;5054330;28;19909;-52
2023/03/05 12:39:51;;;;;;;;;;;8.00;99.90;;;;;;5053854;28;19916;-52
2023/03/05 12:42:29;;;;;;;;;;;7.80;99.90;;;;;;5054326;28;19909;-53
2023/03/05 12:45:18;;;;;;;;;;;7.70;99.90;;;;;;5055231;28;19917;-54
2023/03/05 12:47:43;;;;;;;;;;;7.80;99.90;;;;;;5053554;28;19962;-57
2023/03/05 12:50:27;;;;;;;;;;;8.00;99.90;;;;;;5054227;28;19999;-54
2023/03/05 12:52:53;;;;;;;;;;;8.10;99.90;;;;;;5054196;28;19913;-53
2023/03/05 12:55:44;;;;;;;;;;;8.30;99.90;;;;;;5053389;28;20413;-53
2023/03/05 12:58:24;;;;;;;;;;;8.50;99.90;;;;;;5053546;28;20090;-54
2023/03/05 13:00:54;;;;;;;;;;;8.70;99.90;;;;;;5061460;28;20364;-56
2023/03/05 13:03:22;;;;;;;;;;;8.70;99.90;;;;;;5058839;28;19908;-55
2023/03/05 13:05:52;;;;;;;;;;;8.60;99.90;;;;;;5062814;28;19920;-56
2023/03/05 13:08:22;;;;;;;;;;;8.50;99.90;;;;;;5053626;28;19913;-56
2023/03/05 13:10:55;;;;;;;;;;;8.30;99.90;;;;;;5060118;28;19909;-54
2023/03/05 13:13:20;;;;;;;;;;;8.20;99.90;;;;;;5056935;28;20006;-56
2023/03/05 13:15:47;;;;;;;;;;;8.20;99.90;;;;;;5054276;28;19921;-55
2023/03/05 13:18:18;;;;;;;;;;;8.20;99.90;;;;;;5053195;28;19919;-55
2023/03/05 13:20:43;;;;;;;;;;;8.20;99.90;;;;;;5053721;28;19959;-54
2023/03/05 13:23:25;;;;;;;;;;;8.40;99.90;;;;;;5052730;28;19912;-55
2023/03/05 13:25:58;;;;;;;;;;;8.40;99.90;;;;;;5053438;28;19917;-54
2023/03/05 13:28:24;;;;;;;;;;;8.50;99.90;;;;;;5053463;28;20007;-55
2023/03/05 13:30:51;;;;;;;;;;;8.40;99.90;;;;;;5052870;28;20319;-54
2023/03/05 13:33:18;;;;;;;;;;;8.20;99.90;;;;;;5053272;28;19909;-55
2023/03/05 13:35:45;;;;;;;;;;;8.10;99.90;;;;;;5053401;28;19916;-53
2023/03/05 13:38:20;;;;;;;;;;;7.90;99.90;;;;;;5052531;28;19948;-55
2023/03/05 13:40:59;;;;;;;;;;;7.80;99.90;;;;;;5053412;28;20011;-54
2023/03/05 13:43:24;;;;;;;;;;;7.70;99.90;;;;;;5052789;28;19963;-55
2023/03/05 13:45:55;;;;;;;;;;;7.70;99.90;;;;;;5059593;28;19924;-53
2023/03/05 13:48:20;;;;;;;;;;;7.70;99.90;;;;;;5085112;28;19908;-56
2023/03/05 13:50:52;;;;;;;;;;;7.70;99.90;;;;;;5082183;28;19999;-55
2023/03/05 13:53:27;;;;;;;;;;;7.90;99.90;;;;;;5073149;28;20367;-54
2023/03/05 13:55:55;;;;;;;;;;;8.00;99.90;;;;;;5073054;28;19912;-55
2023/03/05 13:58:39;;;;;;;;;;;7.90;99.90;;;;;;5071938;28;19974;-55
2023/03/05 14:01:11;;;;;;;;;;;7.90;99.90;;;;;;5073021;28;19913;-54
2023/03/05 14:03:37;;;;;;;;;;;7.90;99.90;;;;;;5055265;28;19935;-55
2023/03/05 14:06:08;;;;;;;;;;;7.90;99.90;;;;;;5052050;28;20438;-54
2023/03/05 14:08:33;;;;;;;;;;;7.80;99.90;;;;;;5052976;28;19909;-57
2023/03/05 14:11:09;;;;;;;;;;;7.80;99.90;;;;;;5053688;28;19909;-55
2023/03/05 14:13:35;;;;;;;;;;;7.60;99.90;;;;;;5063858;28;19913;-54
2023/03/05 14:16:06;;;;;;;;;;;7.50;99.90;;;;;;5052882;28;19913;-56
2023/03/05 14:18:32;;;;;;;;;;;7.40;99.90;;;;;;5064160;28;19912;-54
2023/03/05 14:21:08;;;;;;;;;;;7.30;99.90;;;;;;5070806;28;19920;-57
2023/03/05 14:23:35;;;;;;;;;;;7.20;99.90;;;;;;5067280;28;19916;-55
2023/03/05 14:26:30;;;;;;;;;;;7.20;99.90;;;;;;5051599;28;19917;-54
2023/03/05 14:29:03;;;;;;;;;;;7.20;99.90;;;;;;4998184;28;20140;-56
2023/03/05 14:31:30;;;;;;;;;;;7.20;99.90;;;;;;5052239;28;19913;-56
2023/03/05 14:34:03;;;;;;;;;;;7.30;99.90;;;;;;5051639;28;20421;-54
2023/03/05 14:36:29;;;;;;;;;;;7.30;99.90;;;;;;5052408;28;20020;-57